Time;durP1;ratioP1;P1;durP2;ratioP2;P2;SDS_P1;SDS_P2;PMS_P1;PMS_P2;Temp;Humidity;BMP_temperature;BMP_pressure;BME280_temperature;BME280_humidity;BME280_pressure;Samples;Min_cycle;Max_cycle;Signal;HPM_P1;HPM_P2
2021/11/30 00:00:31;;;;;;;13.40;7.72;;;;;;;1.32;100.00;97022.72;4998766;28;20105;-75
2021/11/30 00:02:58;;;;;;;13.85;7.68;;;;;;;1.29;100.00;97009.91;4989892;28;20046;-77
2021/11/30 00:05:24;;;;;;;14.82;8.45;;;;;;;1.32;100.00;97007.50;4973419;28;20495;-77
2021/11/30 00:07:54;;;;;;;15.18;7.90;;;;;;;1.31;100.00;97018.44;4980730;28;20074;-76
2021/11/30 00:13:06;;;;;;;13.57;7.43;;;;;;;1.36;100.00;97018.44;4981039;28;20042;-78
2021/11/30 00:15:32;;;;;;;13.45;7.53;;;;;;;1.30;100.00;97024.81;4989021;28;20113;-75
2021/11/30 00:18:00;;;;;;;16.25;8.30;;;;;;;1.30;100.00;97022.16;4988856;28;20058;-75
2021/11/30 00:20:30;;;;;;;15.98;7.25;;;;;;;1.23;100.00;97025.94;4985185;28;20133;-75
2021/11/30 00:22:57;;;;;;;14.57;7.90;;;;;;;1.30;100.00;97017.63;4983653;28;20069;-76
2021/11/30 00:25:23;;;;;;;17.05;8.35;;;;;;;1.22;100.00;97012.84;4989221;28;20046;-76
2021/11/30 00:27:50;;;;;;;13.45;7.40;;;;;;;1.24;100.00;97000.84;4989601;28;20078;-76
2021/11/30 00:30:16;;;;;;;12.90;7.80;;;;;;;1.23;100.00;97017.94;4988488;28;20112;-75
2021/11/30 00:32:47;;;;;;;12.02;7.10;;;;;;;1.22;100.00;97016.31;4988767;28;20050;-76
2021/11/30 00:35:13;;;;;;;13.75;7.93;;;;;;;1.33;100.00;97019.75;4987309;28;20082;-76
2021/11/30 00:37:40;;;;;;;12.07;6.80;;;;;;;1.30;100.00;97020.31;4987385;28;20466;-76
2021/11/30 00:40:07;;;;;;;13.10;7.10;;;;;;;1.27;100.00;97026.97;4979842;28;20070;-76
2021/11/30 00:42:35;;;;;;;13.02;6.80;;;;;;;1.26;100.00;97019.25;4998180;28;20129;-76
2021/11/30 00:45:05;;;;;;;13.45;7.05;;;;;;;1.24;100.00;97019.50;4989705;28;20162;-77
2021/11/30 00:47:32;;;;;;;13.07;7.40;;;;;;;1.25;100.00;97020.31;4981451;28;20051;-76
2021/11/30 00:50:02;;;;;;;13.35;7.00;;;;;;;1.26;100.00;97016.59;4978492;28;20074;-77
2021/11/30 00:52:30;;;;;;;13.48;6.93;;;;;;;1.27;100.00;97031.50;4973055;28;20468;-77
2021/11/30 00:54:56;;;;;;;13.45;7.50;;;;;;;1.23;100.00;97022.47;4982073;28;20051;-76
2021/11/30 00:57:23;;;;;;;13.63;7.03;;;;;;;1.27;100.00;97021.66;4977265;28;20054;-77
2021/11/30 00:59:52;;;;;;;18.60;7.38;;;;;;;1.29;100.00;97025.91;4988217;28;20054;-77
2021/11/30 01:02:18;;;;;;;14.75;6.80;;;;;;;1.29;100.00;97033.91;4977903;28;20100;-77
2021/11/30 01:04:46;;;;;;;14.23;7.45;;;;;;;1.30;100.00;97019.50;4971638;28;20409;-77
2021/11/30 01:07:13;;;;;;;15.05;7.20;;;;;;;1.27;100.00;97023.50;4980136;28;20057;-77
2021/11/30 01:09:41;;;;;;;13.73;7.28;;;;;;;1.24;100.00;97035.50;4988051;28;20083;-77
2021/11/30 01:12:09;;;;;;;12.95;6.97;;;;;;;1.29;100.00;97026.72;4988659;28;20050;-76
2021/11/30 01:14:37;;;;;;;13.10;6.68;;;;;;;1.29;100.00;97042.72;4987169;28;20054;-77
2021/11/30 01:17:03;;;;;;;13.93;7.10;;;;;;;1.26;100.00;97032.59;4988920;28;20120;-76
2021/11/30 01:19:30;;;;;;;13.70;6.68;;;;;;;1.26;100.00;97029.91;4992156;28;20085;-76
2021/11/30 01:21:57;;;;;;;14.85;7.60;;;;;;;1.30;100.00;97035.50;4990794;28;20058;-76
2021/11/30 01:24:23;;;;;;;12.60;6.65;;;;;;;1.27;100.00;97042.97;4997397;28;20315;-75
2021/11/30 01:26:50;;;;;;;14.85;7.35;;;;;;;1.29;100.00;97031.25;4972257;28;20058;-76
2021/11/30 01:29:17;;;;;;;13.32;6.97;;;;;;;1.31;100.00;97023.78;4970936;28;20140;-77
2021/11/30 01:31:43;;;;;;;12.65;6.93;;;;;;;1.25;100.00;97021.13;4983971;28;20046;-77
2021/11/30 01:34:10;;;;;;;14.20;7.18;;;;;;;1.27;100.00;97023.50;4991735;28;20046;-76
2021/11/30 01:36:36;;;;;;;14.60;7.15;;;;;;;1.32;100.00;97014.72;4990949;28;20715;-76
2021/11/30 01:39:05;;;;;;;14.35;7.30;;;;;;;1.34;100.00;97017.91;4990493;28;20054;-77
2021/11/30 01:41:35;;;;;;;13.20;7.35;;;;;;;1.35;100.00;97006.97;4978657;28;20046;-77
2021/11/30 01:44:05;;;;;;;15.90;7.50;;;;;;;1.29;100.00;97008.06;4986604;28;20453;-77
2021/11/30 01:47:40;;;;;;;14.30;7.13;;;;;;;1.24;100.00;96992.84;4991119;28;20104;-77
2021/11/30 01:52:07;;;;;;;13.38;6.80;;;;;;;1.26;100.00;96993.38;4986096;28;20086;-77
2021/11/30 01:54:39;;;;;;;13.45;7.70;;;;;;;1.16;100.00;96982.75;4982172;28;20054;-77
2021/11/30 01:57:12;;;;;;;11.68;6.70;;;;;;;1.05;100.00;96986.53;4986635;28;20081;-77
2021/11/30 01:59:39;;;;;;;11.85;6.65;;;;;;;0.97;100.00;96979.06;4991717;28;20085;-76
2021/11/30 02:02:06;;;;;;;13.55;6.50;;;;;;;0.96;100.00;96990.78;4992974;28;20196;-77
2021/11/30 02:04:35;;;;;;;13.18;6.25;;;;;;;0.88;100.00;96969.25;4993326;28;20100;-77
2021/11/30 02:07:03;;;;;;;11.30;6.20;;;;;;;0.84;100.00;96976.16;5000042;28;20054;-77
2021/11/30 02:09:30;;;;;;;11.07;5.88;;;;;;;0.87;100.00;96971.09;4996854;28;20054;-76
2021/11/30 02:11:57;;;;;;;12.32;6.50;;;;;;;0.83;100.00;96964.69;4993411;28;20058;-77
2021/11/30 02:14:24;;;;;;;11.00;6.10;;;;;;;0.77;100.00;96965.78;4997066;28;20046;-77
2021/11/30 02:16:51;;;;;;;13.48;7.13;;;;;;;0.67;100.00;96971.13;4996049;28;20450;-77
2021/11/30 02:19:18;;;;;;;10.85;6.32;;;;;;;0.66;100.00;96968.72;4990869;28;20376;-77
2021/11/30 02:21:45;;;;;;;12.55;6.75;;;;;;;0.58;100.00;96959.41;4990875;28;20050;-77
2021/11/30 02:24:12;;;;;;;14.13;6.18;;;;;;;0.52;100.00;96968.44;4990599;28;20120;-77
2021/11/30 02:26:41;;;;;;;11.60;5.72;;;;;;;0.51;100.00;96965.00;4990509;28;20058;-78
2021/11/30 02:29:09;;;;;;;10.68;6.03;;;;;;;0.58;100.00;96954.88;4980494;28;20114;-77
2021/11/30 02:31:41;;;;;;;9.98;5.63;;;;;;;0.52;100.00;96952.47;4980041;28;20055;-77
2021/11/30 02:34:07;;;;;;;10.02;5.95;;;;;;;0.50;100.00;96958.09;4978760;28;20054;-77
2021/11/30 02:36:50;;;;;;;10.13;5.68;;;;;;;0.47;100.00;96947.97;4980558;28;20066;-77
2021/11/30 02:39:20;;;;;;;9.32;5.30;;;;;;;0.49;100.00;96945.06;4979317;28;20085;-78
2021/11/30 02:41:48;;;;;;;10.43;5.88;;;;;;;0.54;100.00;96940.50;4991211;28;20128;-77
2021/11/30 02:44:17;;;;;;;11.05;6.13;;;;;;;0.50;100.00;96944.78;4991446;28;20046;-77
2021/11/30 02:46:47;;;;;;;10.85;5.63;;;;;;;0.51;100.00;96942.91;4986772;28;20047;-77
2021/11/30 02:49:19;;;;;;;8.90;5.45;;;;;;;0.59;100.00;96948.47;4996645;28;20475;-77
2021/11/30 02:51:50;;;;;;;9.82;5.45;;;;;;;0.61;100.00;96937.56;5005262;23;20137;-79
2021/11/30 02:54:20;;;;;;;10.05;5.43;;;;;;;0.65;100.00;96930.63;4942284;29;20054;-85
2021/11/30 02:56:53;;;;;;;11.95;6.00;;;;;;;0.76;100.00;96931.41;4944048;29;20050;-79
2021/11/30 02:59:21;;;;;;;9.82;5.20;;;;;;;0.82;100.00;96923.16;4937229;29;20051;-81
2021/11/30 03:01:54;;;;;;;10.32;5.85;;;;;;;0.94;100.00;96917.53;4945360;29;20083;-80
2021/11/30 03:04:21;;;;;;;9.98;5.97;;;;;;;0.89;100.00;96913.00;4956745;29;20047;-81
2021/11/30 03:06:48;;;;;;;14.43;6.28;;;;;;;0.88;100.00;96908.75;4956410;29;20055;-81
2021/11/30 03:09:17;;;;;;;9.18;5.40;;;;;;;0.98;100.00;96907.94;4958420;28;20070;-81
2021/11/30 03:11:45;;;;;;;11.05;6.22;;;;;;;0.99;100.00;96912.97;4959088;29;20051;-79
2021/11/30 03:14:12;;;;;;;12.43;6.03;;;;;;;1.01;100.00;96905.50;4958083;29;20102;-81
2021/11/30 03:16:39;;;;;;;10.93;5.95;;;;;;;1.08;100.00;96902.56;4959529;28;20058;-79
2021/11/30 03:19:07;;;;;;;11.52;6.38;;;;;;;1.07;100.00;96892.97;4958494;29;20054;-79
2021/11/30 03:21:34;;;;;;;11.90;6.28;;;;;;;1.05;100.00;96901.25;4957426;29;20055;-81
2021/11/30 03:24:01;;;;;;;11.30;6.30;;;;;;;1.11;100.00;96899.38;4958914;28;20078;-78
2021/11/30 03:26:27;;;;;;;10.90;6.25;;;;;;;1.17;100.00;96890.25;4960141;28;20082;-80
2021/11/30 03:28:54;;;;;;;12.13;6.22;;;;;;;1.16;100.00;96891.34;4960100;28;20055;-79
2021/11/30 03:34:01;;;;;;;11.70;6.25;;;;;;;1.24;100.00;96877.44;4961623;28;20139;-80
2021/11/30 03:36:29;;;;;;;11.90;6.20;;;;;;;1.19;100.00;96864.94;4960984;28;20047;-80
2021/11/30 03:38:57;;;;;;;12.57;6.90;;;;;;;1.24;100.00;96854.25;4962228;28;20054;-81
2021/11/30 03:41:25;;;;;;;12.90;6.82;;;;;;;1.21;100.00;96854.00;4959716;28;20055;-81
2021/11/30 03:43:52;;;;;;;14.50;7.22;;;;;;;1.23;100.00;96850.00;4959577;28;20047;-79
2021/11/30 03:46:19;;;;;;;12.40;6.53;;;;;;;1.21;100.00;96846.78;4959548;28;20125;-80
2021/11/30 03:48:46;;;;;;;13.77;7.53;;;;;;;1.26;100.00;96835.31;4959620;28;20514;-81
2021/11/30 03:51:13;;;;;;;14.70;7.18;;;;;;;1.25;100.00;96839.06;4967093;28;20051;-81
2021/11/30 03:53:43;;;;;;;16.08;7.85;;;;;;;1.29;100.00;96834.78;4972412;28;20047;-82
2021/11/30 03:56:09;;;;;;;14.38;7.68;;;;;;;1.32;100.00;96828.09;4973291;28;20039;-86
2021/11/30 03:58:36;;;;;;;16.80;8.95;;;;;;;1.29;100.00;96816.13;4958687;28;20055;-81
2021/11/30 04:01:03;;;;;;;16.67;8.98;;;;;;;1.26;100.00;96814.78;4960526;28;20051;-81
2021/11/30 04:03:33;;;;;;;17.73;9.32;;;;;;;1.32;100.00;96812.09;4955258;28;20051;-80
2021/11/30 04:06:02;;;;;;;16.50;9.18;;;;;;;1.36;100.00;96813.13;4954779;29;20082;-80
2021/11/30 04:08:29;;;;;;;17.25;9.07;;;;;;;1.37;100.00;96807.50;4956760;29;20058;-81
2021/11/30 04:10:56;;;;;;;15.88;8.80;;;;;;;1.42;100.00;96809.38;4959200;29;20061;-81
2021/11/30 04:13:22;;;;;;;18.45;9.50;;;;;;;1.37;100.00;96802.19;4956938;29;20075;-81
2021/11/30 04:15:49;;;;;;;17.50;9.60;;;;;;;1.41;100.00;96784.56;4957034;28;20054;-82
2021/11/30 04:18:15;;;;;;;17.30;9.68;;;;;;;1.44;100.00;96777.88;4957577;28;20047;-80
2021/11/30 04:20:42;;;;;;;19.00;9.60;;;;;;;1.40;100.00;96774.97;4956620;28;20102;-80
2021/11/30 04:23:09;;;;;;;18.08;10.25;;;;;;;1.47;100.00;96780.00;4956315;28;20082;-79
2021/11/30 04:25:35;;;;;;;18.45;9.82;;;;;;;1.49;100.00;96784.00;4955313;28;20079;-80
2021/11/30 04:28:02;;;;;;;20.02;10.70;;;;;;;1.50;100.00;96763.44;4956788;28;20133;-79
2021/11/30 04:30:29;;;;;;;20.83;9.75;;;;;;;1.45;100.00;96766.13;4957325;28;20146;-79
2021/11/30 04:32:56;;;;;;;24.08;10.85;;;;;;;1.50;100.00;96761.56;4955558;28;20523;-80
2021/11/30 04:35:24;;;;;;;21.02;10.68;;;;;;;1.45;100.00;96755.47;4955825;29;20562;-80
2021/11/30 04:37:51;;;;;;;22.20;11.25;;;;;;;1.45;100.00;96752.81;4963013;29;20055;-79
2021/11/30 04:40:18;;;;;;;22.58;12.02;;;;;;;1.43;100.00;96753.09;4963092;28;20066;-79
2021/11/30 04:42:48;;;;;;;24.30;12.05;;;;;;;1.43;100.00;96750.44;4964340;28;20587;-83
2021/11/30 04:47:52;;;;;;;21.58;11.07;;;;;;;1.39;100.00;96741.41;4957773;28;20138;-80
2021/11/30 04:50:42;;;;;;;25.90;12.50;;;;;;;1.34;100.00;96722.78;4957566;28;20424;-80
2021/11/30 04:53:09;;;;;;;26.80;12.95;;;;;;;1.32;100.00;96724.91;4962187;29;20067;-83
2021/11/30 04:55:36;;;;;;;26.23;13.35;;;;;;;1.28;100.00;96723.88;4964093;29;20055;-81
2021/11/30 04:58:04;;;;;;;27.75;13.77;;;;;;;1.30;100.00;96719.06;4973770;28;20027;-85
2021/11/30 05:00:33;;;;;;;26.88;12.95;;;;;;;1.35;100.00;96715.56;4960072;28;20069;-79
2021/11/30 05:03:00;;;;;;;23.20;11.82;;;;;;;1.33;100.00;96712.38;4960171;28;20110;-78
2021/11/30 05:05:27;;;;;;;23.95;12.07;;;;;;;1.35;100.00;96713.69;4960323;28;20571;-82
2021/11/30 05:07:53;;;;;;;23.35;11.25;;;;;;;1.30;100.00;96713.72;4961823;28;20110;-80
2021/11/30 05:10:20;;;;;;;21.92;11.82;;;;;;;1.37;100.00;96705.44;4960731;28;20054;-78
2021/11/30 05:12:47;;;;;;;23.17;11.48;;;;;;;1.35;100.00;96703.03;4961043;28;20051;-82
2021/11/30 05:15:15;;;;;;;28.27;11.73;;;;;;;1.39;100.00;96690.75;4959991;29;20088;-81
2021/11/30 05:17:42;;;;;;;23.10;11.52;;;;;;;1.39;100.00;96684.63;4961672;29;20055;-78
2021/11/30 05:20:11;;;;;;;25.88;11.77;;;;;;;1.45;100.00;96678.16;4962011;28;20058;-79
2021/11/30 05:22:38;;;;;;;25.58;11.02;;;;;;;1.47;100.00;96681.34;4960350;28;20468;-80
2021/11/30 05:25:24;;;;;;;25.85;9.75;;;;;;;1.51;100.00;96669.84;4964403;28;20047;-83
2021/11/30 05:27:52;;;;;;;19.10;9.32;;;;;;;1.57;100.00;96673.25;4962739;28;20062;-79
2021/11/30 05:30:21;;;;;;;18.25;9.43;;;;;;;1.55;100.00;96670.84;4960708;28;20090;-79
2021/11/30 05:32:49;;;;;;;18.73;9.05;;;;;;;1.66;100.00;96666.22;4958158;29;20114;-82
2021/11/30 05:35:16;;;;;;;16.83;9.15;;;;;;;1.68;100.00;96662.19;4946821;29;20047;-80
2021/11/30 05:37:43;;;;;;;15.70;8.20;;;;;;;1.64;100.00;96652.38;4957713;28;20171;-78
2021/11/30 05:40:10;;;;;;;17.92;8.88;;;;;;;1.74;100.00;96652.28;4957612;28;20151;-79
2021/11/30 05:42:37;;;;;;;17.15;8.30;;;;;;;1.76;100.00;96666.13;4957231;28;20085;-78
2021/11/30 05:45:04;;;;;;;18.92;8.38;;;;;;;1.78;100.00;96647.97;4954631;29;20051;-77
2021/11/30 05:47:31;;;;;;;12.40;7.15;;;;;;;1.90;100.00;96645.72;4957240;29;20062;-79
2021/11/30 05:49:58;;;;;;;13.80;7.47;;;;;;;2.12;100.00;96643.31;4960331;28;20142;-79
2021/11/30 05:52:25;;;;;;;19.40;6.78;;;;;;;2.05;100.00;96642.06;4961852;29;20057;-80
2021/11/30 05:54:53;;;;;;;12.85;6.60;;;;;;;2.00;100.00;96642.13;4963222;29;20043;-80
2021/11/30 05:57:22;;;;;;;12.43;6.93;;;;;;;2.07;100.00;96638.03;4964486;28;20087;-77
2021/11/30 05:59:49;;;;;;;13.40;6.50;;;;;;;2.06;100.00;96649.00;4969841;28;20046;-86
2021/11/30 06:02:18;;;;;;;10.52;6.22;;;;;;;1.98;100.00;96639.75;4962099;28;20051;-81
2021/11/30 06:04:45;;;;;;;12.32;6.93;;;;;;;2.03;100.00;96638.88;4956750;29;20048;-79
2021/11/30 06:07:12;;;;;;;11.77;5.70;;;;;;;1.96;100.00;96625.91;4956479;29;20138;-81
2021/11/30 06:09:39;;;;;;;11.80;6.10;;;;;;;1.96;100.00;96639.25;4957813;29;20054;-79
2021/11/30 06:12:06;;;;;;;11.05;6.57;;;;;;;1.98;100.00;96626.41;4958541;28;20047;-79
2021/11/30 06:14:33;;;;;;;11.13;5.25;;;;;;;2.00;100.00;96629.59;4957399;29;20571;-81
2021/11/30 06:17:04;;;;;;;10.52;5.68;;;;;;;2.01;100.00;96620.50;4959044;29;20118;-79
2021/11/30 06:19:31;;;;;;;9.80;6.05;;;;;;;1.97;100.00;96610.66;4956792;29;20122;-80
2021/11/30 06:21:58;;;;;;;13.35;6.15;;;;;;;1.96;100.00;96625.09;4953123;28;20043;-77
2021/11/30 06:24:25;;;;;;;9.82;5.93;;;;;;;1.87;100.00;96622.25;4957479;28;20047;-78
2021/11/30 06:26:52;;;;;;;11.32;5.78;;;;;;;1.82;100.00;96604.44;4959579;28;20050;-79
2021/11/30 06:29:19;;;;;;;12.35;6.00;;;;;;;1.79;100.00;96604.19;4954804;29;20051;-77
2021/11/30 06:31:46;;;;;;;11.25;5.82;;;;;;;1.80;100.00;96597.78;4940118;29;20079;-82
2021/11/30 06:34:15;;;;;;;15.77;7.50;;;;;;;1.75;100.00;96571.97;4943686;29;20118;-83
2021/11/30 06:36:42;;;;;;;18.15;7.22;;;;;;;1.70;100.00;96563.25;4960048;29;20051;-82
2021/11/30 06:39:15;;;;;;;15.95;7.85;;;;;;;1.67;100.00;96551.25;4942710;29;20059;-84
2021/11/30 06:41:42;;;;;;;14.00;6.68;;;;;;;1.66;100.00;96549.66;4957289;29;20418;-80
2021/11/30 06:44:11;;;;;;;14.20;7.50;;;;;;;1.70;100.00;96536.56;4940519;29;20055;-81
2021/11/30 06:46:41;;;;;;;15.85;7.50;;;;;;;1.73;100.00;96539.44;4956470;29;20544;-79
2021/11/30 06:49:08;;;;;;;15.13;7.53;;;;;;;1.71;100.00;96525.59;4956077;29;20086;-80
2021/11/30 06:51:35;;;;;;;19.30;7.50;;;;;;;1.72;100.00;96521.06;4948750;29;20048;-81
2021/11/30 06:54:04;;;;;;;13.80;8.00;;;;;;;1.68;100.00;96526.16;4938654;29;20098;-82
2021/11/30 06:56:31;;;;;;;17.10;7.53;;;;;;;1.74;100.00;96521.56;4939105;29;20047;-80
2021/11/30 06:58:58;;;;;;;17.25;7.47;;;;;;;1.72;100.00;96508.53;4940553;29;20062;-82
2021/11/30 07:01:28;;;;;;;12.82;7.30;;;;;;;1.73;100.00;96496.00;4940275;29;20085;-84
2021/11/30 07:04:00;;;;;;;15.60;6.88;;;;;;;1.72;100.00;96494.38;4961800;28;20043;-87
2021/11/30 07:06:59;;;;;;;14.85;6.60;;;;;;;1.72;100.00;96479.19;4958609;28;20052;-81
2021/11/30 07:09:47;;;;;;;11.93;6.25;;;;;;;1.71;100.00;96477.59;4958469;28;20073;-85
2021/11/30 07:15:07;;;;;;;13.27;6.55;;;;;;;1.57;100.00;96465.25;4960919;28;20125;-81
2021/11/30 07:17:34;;;;;;;16.10;6.32;;;;;;;1.64;100.00;96474.47;4963327;29;20062;-80
2021/11/30 07:20:04;;;;;;;10.52;5.65;;;;;;;1.69;100.00;96470.94;4964719;29;20111;-82
2021/11/30 07:22:31;;;;;;;11.00;5.78;;;;;;;1.64;100.00;96450.47;4963908;29;20059;-81
2021/11/30 07:24:58;;;;;;;11.50;5.38;;;;;;;1.70;100.00;96464.53;4982876;28;20074;-80
2021/11/30 07:27:24;;;;;;;8.65;5.20;;;;;;;1.59;100.00;96452.41;4965347;28;20527;-84
2021/11/30 07:29:51;;;;;;;8.93;4.63;;;;;;;1.59;100.00;96468.41;4963149;28;20251;-81
2021/11/30 07:32:18;;;;;;;10.85;5.22;;;;;;;1.61;100.00;96439.59;4979470;28;20109;-81
2021/11/30 07:34:45;;;;;;;10.45;4.45;;;;;;;1.53;100.00;96432.22;4959560;28;20051;-81
2021/11/30 07:37:11;;;;;;;8.00;4.28;;;;;;;1.57;100.00;96449.25;4979899;28;20062;-85
2021/11/30 07:39:51;;;;;;;9.48;4.35;;;;;;;1.47;100.00;96420.81;4982004;28;20059;-84
2021/11/30 07:42:30;;;;;;;6.63;3.97;;;;;;;1.47;100.00;96439.47;4962053;29;20055;-85
2021/11/30 07:44:58;;;;;;;9.50;3.28;;;;;;;1.53;100.00;96438.34;4960991;29;20072;-84
2021/11/30 07:47:25;;;;;;;14.43;3.83;;;;;;;1.45;100.00;96419.50;4960886;29;20051;-81
2021/11/30 07:49:55;;;;;;;8.27;3.75;;;;;;;1.51;100.00;96424.50;4959941;28;20436;-80
2021/11/30 07:52:22;;;;;;;6.45;3.70;;;;;;;1.52;100.00;96419.97;4959252;28;20074;-82
2021/11/30 07:54:52;;;;;;;6.25;3.13;;;;;;;1.42;100.00;96396.13;4960083;28;20818;-82
2021/11/30 07:57:25;;;;;;;7.90;3.35;;;;;;;1.57;100.00;96409.25;4960639;28;20055;-81
2021/11/30 07:59:52;;;;;;;6.93;3.08;;;;;;;1.59;100.00;96391.88;4961518;28;20059;-80
2021/11/30 08:02:27;;;;;;;7.32;2.90;;;;;;;1.52;100.00;96383.44;4940322;29;20044;-80
2021/11/30 08:05:09;;;;;;;5.22;2.83;;;;;;;1.56;100.00;96359.66;4967123;28;20087;-88
2021/11/30 08:07:40;;;;;;;6.35;3.45;;;;;;;1.56;100.00;96367.66;4990097;28;20066;-86
2021/11/30 08:10:25;;;;;;;5.22;2.47;;;;;;;1.57;100.00;96358.56;4977835;28;20027;-84
2021/11/30 08:12:57;;;;;;;3.97;2.13;;;;;;;1.51;100.00;96341.06;4963156;29;20071;-83
2021/11/30 08:15:29;;;;;;;5.55;2.15;;;;;;;1.48;100.00;96323.75;4966682;28;20071;-84
2021/11/30 08:18:07;;;;;;;3.78;2.40;;;;;;;1.60;100.00;96360.69;4970084;29;20075;-85
2021/11/30 08:20:37;;;;;;;3.50;1.92;;;;;;;1.47;100.00;96332.06;4969058;28;20047;-81
2021/11/30 08:23:04;;;;;;;2.75;1.70;;;;;;;1.67;100.00;96335.22;4961259;29;20106;-84
2021/11/30 08:25:34;;;;;;;3.60;2.03;;;;;;;1.64;100.00;96319.81;4958233;28;20051;-86
2021/11/30 08:28:07;;;;;;;5.65;1.80;;;;;;;1.72;100.00;96331.69;4960654;29;20094;-84
2021/11/30 08:30:47;;;;;;;4.53;2.20;;;;;;;1.63;100.00;96310.19;4965875;28;20051;-84
2021/11/30 08:33:17;;;;;;;3.03;1.90;;;;;;;1.71;100.00;96314.88;4968413;29;20055;-84
2021/11/30 08:35:47;;;;;;;4.18;2.15;;;;;;;1.77;100.00;96315.59;4963567;29;20051;-85
2021/11/30 08:38:15;;;;;;;3.75;1.77;;;;;;;1.84;100.00;96289.34;4964482;28;20087;-85
2021/11/30 08:40:51;;;;;;;3.17;1.60;;;;;;;1.82;100.00;96286.16;4961681;29;20449;-82
2021/11/30 08:43:29;;;;;;;5.63;1.33;;;;;;;1.86;100.00;96303.16;4961014;29;20154;-83
2021/11/30 08:45:57;;;;;;;1.83;1.35;;;;;;;1.89;100.00;96292.72;4959135;28;20162;-83
2021/11/30 08:48:24;;;;;;;2.10;1.33;;;;;;;1.98;100.00;96300.06;4956688;29;20463;-84
2021/11/30 08:50:59;;;;;;;1.88;1.10;;;;;;;1.98;100.00;96311.53;4958976;29;20054;-82
2021/11/30 08:53:26;;;;;;;4.10;0.97;;;;;;;1.94;100.00;96289.16;4957861;29;20047;-85
2021/11/30 08:55:55;;;;;;;4.28;1.35;;;;;;;1.97;100.00;96296.59;4961361;28;20307;-86
2021/11/30 08:58:23;;;;;;;2.63;1.17;;;;;;;2.02;100.00;96285.81;4960808;29;20059;-85
2021/11/30 09:03:39;;;;;;;3.67;0.85;;;;;;;1.86;100.00;96263.94;4958210;29;20047;-78
2021/11/30 09:06:08;;;;;;;4.38;0.95;;;;;;;2.00;100.00;96277.31;4943347;29;20043;-79
2021/11/30 09:08:35;;;;;;;1.48;0.95;;;;;;;2.00;100.00;96268.53;4946134;29;20061;-79
2021/11/30 09:11:02;;;;;;;1.27;0.65;;;;;;;2.08;100.00;96276.66;4968746;29;20050;-78
2021/11/30 09:13:29;;;;;;;2.28;0.70;;;;;;;2.15;100.00;96310.97;4966333;28;20040;-77
2021/11/30 09:15:57;;;;;;;2.10;0.60;;;;;;;2.24;100.00;96302.00;4958122;29;20392;-79
2021/11/30 09:18:29;;;;;;;4.35;0.70;;;;;;;2.26;100.00;96297.16;4943630;29;20066;-80
2021/11/30 09:20:58;;;;;;;1.15;0.40;;;;;;;2.27;100.00;96287.28;4943012;29;20051;-80
2021/11/30 09:23:28;;;;;;;1.10;0.60;;;;;;;2.29;100.00;96274.41;4942975;29;20518;-79
2021/11/30 09:25:56;;;;;;;1.13;0.52;;;;;;;2.27;100.00;96274.69;4942857;29;20077;-79
2021/11/30 09:28:24;;;;;;;0.98;0.60;;;;;;;2.32;100.00;96263.16;4944660;29;20444;-79
2021/11/30 09:30:54;;;;;;;0.80;0.60;;;;;;;2.39;100.00;96282.22;4944368;29;20051;-79
2021/11/30 09:33:39;;;;;;;1.58;0.55;;;;;;;2.40;100.00;96291.84;4938341;29;20055;-78
2021/11/30 09:36:08;;;;;;;2.58;0.80;;;;;;;2.46;100.00;96287.97;4943336;29;20039;-79
2021/11/30 09:38:35;;;;;;;1.10;0.60;;;;;;;2.43;100.00;96276.00;4942185;29;20059;-81
2021/11/30 09:41:02;;;;;;;6.63;0.50;;;;;;;2.42;100.00;96263.75;4956945;29;20058;-78
2021/11/30 09:43:47;;;;;;;1.02;0.60;;;;;;;2.37;100.00;96255.03;4944567;29;20067;-78
2021/11/30 09:46:14;;;;;;;0.63;0.40;;;;;;;2.35;100.00;96254.53;4943343;29;20051;-78
2021/11/30 09:48:41;;;;;;;1.55;0.60;;;;;;;2.31;100.00;96274.91;4955775;29;20145;-77
2021/11/30 09:51:08;;;;;;;1.52;0.50;;;;;;;2.31;100.00;96240.19;4955575;28;20067;-77
2021/11/30 09:53:35;;;;;;;1.48;0.52;;;;;;;2.29;100.00;96275.22;4955616;29;20062;-79
2021/11/30 09:56:03;;;;;;;1.33;0.60;;;;;;;2.28;100.00;96257.59;4955359;29;20484;-77
2021/11/30 09:58:30;;;;;;;1.85;0.60;;;;;;;2.28;100.00;96257.59;4956286;28;20052;-78
2021/11/30 10:01:00;;;;;;;1.13;0.50;;;;;;;2.26;100.00;96251.78;4955352;28;20055;-77
2021/11/30 10:03:27;;;;;;;4.95;0.77;;;;;;;2.26;100.00;96238.41;4955442;29;20075;-77
2021/11/30 10:05:55;;;;;;;1.27;0.70;;;;;;;2.24;100.00;96243.28;4955773;28;20055;-79
2021/11/30 10:08:34;;;;;;;1.92;0.60;;;;;;;2.24;100.00;96237.94;4955440;29;20098;-76
2021/11/30 10:11:25;;;;;;;1.42;0.52;;;;;;;2.19;100.00;96246.03;4958361;29;20066;-76
2021/11/30 10:14:11;;;;;;;1.10;0.52;;;;;;;2.22;100.00;96232.06;4958294;29;20051;-77
2021/11/30 10:16:39;;;;;;;2.22;0.50;;;;;;;2.23;100.00;96236.34;4958343;29;20510;-78
2021/11/30 10:19:07;;;;;;;1.13;0.47;;;;;;;2.17;100.00;96207.38;4943190;29;20059;-76
2021/11/30 10:21:35;;;;;;;1.83;0.60;;;;;;;2.23;100.00;96217.66;4949694;29;20051;-76
2021/11/30 10:24:06;;;;;;;0.90;0.47;;;;;;;2.26;100.00;96211.72;4958122;29;20069;-77
2021/11/30 10:26:41;;;;;;;4.28;0.50;;;;;;;2.35;100.00;96201.13;4947088;29;20058;-77
2021/11/30 10:29:11;;;;;;;1.00;0.40;;;;;;;2.37;100.00;96186.41;4957973;29;20054;-76
2021/11/30 10:31:50;;;;;;;2.25;0.60;;;;;;;2.43;100.00;96182.53;4959168;29;20043;-76
2021/11/30 10:34:17;;;;;;;0.68;0.38;;;;;;;2.53;100.00;96167.41;4944476;29;20051;-79
2021/11/30 10:36:49;;;;;;;1.35;0.40;;;;;;;2.53;100.00;96149.47;4948787;28;20055;-77
2021/11/30 10:39:38;;;;;;;1.83;0.60;;;;;;;2.64;100.00;96152.72;4959043;29;20057;-78
2021/11/30 10:42:22;;;;;;;3.75;0.52;;;;;;;2.71;100.00;96161.91;4959712;29;20070;-77
2021/11/30 10:44:52;;;;;;;1.17;0.40;;;;;;;2.76;100.00;96155.69;4943374;29;20507;-76
2021/11/30 10:47:22;;;;;;;0.82;0.40;;;;;;;2.82;100.00;96160.59;4945586;29;20488;-78
2021/11/30 10:49:54;;;;;;;1.05;0.40;;;;;;;2.83;100.00;96158.72;4949236;29;20053;-76
2021/11/30 10:52:32;;;;;;;1.10;0.40;;;;;;;2.84;100.00;96141.63;4942949;29;20081;-76
2021/11/30 10:55:09;;;;;;;0.95;0.50;;;;;;;2.94;100.00;96139.47;4927498;29;20564;-76
2021/11/30 10:57:37;;;;;;;1.33;0.50;;;;;;;2.93;100.00;96123.75;4950948;29;20036;-79
2021/11/30 11:00:15;;;;;;;1.50;0.45;;;;;;;2.86;100.00;96134.88;4948704;29;20131;-79
2021/11/30 11:05:34;;;;;;;0.32;0.30;;;;;;;2.87;100.00;96144.47;4961214;29;20408;-78
2021/11/30 11:08:12;;;;;;;0.70;0.50;;;;;;;2.94;100.00;96138.72;4944130;29;20048;-77
2021/11/30 11:10:42;;;;;;;0.80;0.40;;;;;;;2.91;100.00;96116.06;4944630;29;20051;-76
2021/11/30 11:13:21;;;;;;;0.50;0.22;;;;;;;3.01;100.00;96136.41;4944925;29;20078;-77
2021/11/30 11:15:50;;;;;;;3.08;0.30;;;;;;;3.03;100.00;96131.53;4943585;29;20423;-77
2021/11/30 11:18:30;;;;;;;0.85;0.38;;;;;;;3.06;100.00;96134.41;4944766;29;20513;-77
2021/11/30 11:21:37;;;;;;;1.25;0.40;;;;;;;3.01;100.00;96123.03;4944655;29;20055;-78
2021/11/30 11:24:25;;;;;;;1.45;0.30;;;;;;;2.97;100.00;96111.34;4952835;29;20110;-77
2021/11/30 11:26:57;;;;;;;5.05;0.30;;;;;;;2.84;100.00;96121.00;4951446;29;20052;-78
2021/11/30 11:29:32;;;;;;;0.93;0.40;;;;;;;2.84;100.00;96133.59;4956184;29;20050;-78
2021/11/30 11:32:02;;;;;;;1.70;0.35;;;;;;;2.73;100.00;96105.53;4939816;29;20047;-78
2021/11/30 11:34:31;;;;;;;0.65;0.35;;;;;;;2.62;100.00;96117.53;4940941;29;20051;-78
2021/11/30 11:37:03;;;;;;;0.20;0.10;;;;;;;2.55;100.00;96125.97;4940900;29;20071;-78
2021/11/30 11:39:32;;;;;;;1.58;0.38;;;;;;;2.54;100.00;96127.03;4957316;29;20522;-79
2021/11/30 11:42:05;;;;;;;1.85;0.40;;;;;;;2.46;100.00;96127.75;4943878;29;20050;-79
2021/11/30 11:44:32;;;;;;;1.30;0.40;;;;;;;2.41;100.00;96123.31;4941847;29;20058;-79
2021/11/30 11:47:05;;;;;;;0.32;0.20;;;;;;;2.34;100.00;96106.13;4942009;29;20051;-80
2021/11/30 11:49:47;;;;;;;4.03;0.40;;;;;;;2.36;100.00;96109.28;4941767;29;20063;-80
2021/11/30 11:52:26;;;;;;;0.82;0.50;;;;;;;2.38;100.00;96113.22;4941177;29;20075;-79
2021/11/30 11:55:12;;;;;;;3.25;0.50;;;;;;;2.37;100.00;96111.66;4942337;29;20043;-79
2021/11/30 11:57:40;;;;;;;1.13;0.45;;;;;;;2.34;100.00;96064.19;4941055;29;20130;-81